Time;durP1;ratioP1;P1;durP2;ratioP2;P2;SDS_P1;SDS_P2;PMS_P1;PMS_P2;Temp;Humidity;BMP_temperature;BMP_pressure;BME280_temperature;BME280_humidity;BME280_pressure;Samples;Min_cycle;Max_cycle;Signal;HPM_P1;HPM_P2
2023/05/31 00:00:24;;;;;;;8.23;3.70;;;14.90;99.90;;;;;;5071118;28;20032;-62
2023/05/31 00:02:51;;;;;;;7.10;3.13;;;15.00;99.90;;;;;;5077466;28;20482;-62
2023/05/31 00:05:19;;;;;;;6.85;3.55;;;15.00;99.90;;;;;;5084766;28;20166;-63
2023/05/31 00:07:46;;;;;;;16.17;3.78;;;15.10;99.90;;;;;;5071230;28;20107;-61
2023/05/31 00:10:14;;;;;;;7.82;3.30;;;15.30;99.90;;;;;;5071329;28;20028;-61
2023/05/31 00:12:41;;;;;;;5.80;3.22;;;15.40;99.90;;;;;;5081799;28;20085;-62
2023/05/31 00:15:10;;;;;;;7.32;3.17;;;15.60;99.90;;;;;;5078972;28;20017;-61
2023/05/31 00:17:37;;;;;;;5.15;3.00;;;15.80;99.90;;;;;;5084520;28;20027;-61
2023/05/31 00:20:05;;;;;;;5.40;2.97;;;15.90;99.90;;;;;;5066597;28;20822;-61
2023/05/31 00:22:32;;;;;;;11.18;3.50;;;15.90;99.90;;;;;;5080406;28;20046;-61
2023/05/31 00:25:00;;;;;;;9.20;3.30;;;16.00;99.90;;;;;;5059619;28;20030;-61
2023/05/31 00:27:27;;;;;;;7.80;3.30;;;16.20;99.90;;;;;;5056131;28;20078;-60
2023/05/31 00:29:55;;;;;;;10.85;3.08;;;16.30;99.90;;;;;;5083081;28;20020;-62
2023/05/31 00:32:22;;;;;;;7.20;3.22;;;16.40;99.90;;;;;;5087651;28;20089;-62
2023/05/31 00:34:50;;;;;;;5.28;2.92;;;16.50;99.90;;;;;;5054433;28;20112;-61
2023/05/31 00:37:17;;;;;;;9.98;2.90;;;16.60;99.90;;;;;;5078448;28;20393;-61
2023/05/31 00:39:45;;;;;;;6.93;2.80;;;16.80;99.90;;;;;;5075824;28;20101;-58
2023/05/31 00:42:12;;;;;;;10.95;3.33;;;17.00;99.90;;;;;;5079527;28;20027;-60
2023/05/31 00:44:40;;;;;;;6.97;3.33;;;17.20;99.90;;;;;;5065525;28;20036;-62
2023/05/31 00:47:08;;;;;;;7.72;3.17;;;17.40;99.90;;;;;;5076507;28;20356;-61
2023/05/31 00:49:36;;;;;;;9.18;3.17;;;17.60;99.90;;;;;;5071756;28;20115;-61
2023/05/31 00:52:04;;;;;;;6.50;3.63;;;17.70;99.90;;;;;;5082035;28;20028;-61
2023/05/31 00:54:32;;;;;;;4.78;2.75;;;17.80;99.90;;;;;;5077470;28;20036;-61
2023/05/31 00:57:01;;;;;;;7.28;2.72;;;17.80;99.90;;;;;;5084979;28;20050;-61
2023/05/31 00:59:29;;;;;;;4.90;2.47;;;17.80;99.90;;;;;;5070054;28;20106;-61
2023/05/31 01:01:57;;;;;;;8.65;2.25;;;17.80;99.90;;;;;;5076268;28;20028;-60
2023/05/31 01:04:25;;;;;;;7.15;2.20;;;17.80;99.90;;;;;;5078790;28;20778;-61
2023/05/31 01:06:53;;;;;;;3.78;2.08;;;17.80;99.90;;;;;;5070546;28;20048;-60
2023/05/31 01:09:20;;;;;;;5.60;2.30;;;17.80;99.90;;;;;;5078683;28;20058;-61
2023/05/31 01:11:58;;;;;;;6.35;3.20;;;17.90;99.90;;;;;;5078369;28;20031;-62
2023/05/31 01:14:43;;;;;;;4.80;2.35;;;18.10;99.90;;;;;;5057182;28;20021;-62
2023/05/31 01:17:30;;;;;;;5.38;2.08;;;18.30;99.90;;;;;;5080789;28;20073;-63
2023/05/31 01:20:04;;;;;;;3.08;1.80;;;18.50;99.90;;;;;;5054147;28;20139;-61
2023/05/31 01:22:51;;;;;;;5.22;2.00;;;18.80;99.90;;;;;;5087924;28;20127;-62
2023/05/31 01:25:22;;;;;;;5.68;1.80;;;18.90;99.90;;;;;;5079267;28;20016;-64
2023/05/31 01:27:52;;;;;;;3.10;1.92;;;19.10;99.90;;;;;;5080732;28;20492;-62
2023/05/31 01:30:22;;;;;;;6.03;2.25;;;19.30;99.90;;;;;;5078342;28;20032;-64
2023/05/31 01:32:51;;;;;;;3.80;2.22;;;19.40;99.90;;;;;;5081291;28;20020;-62
2023/05/31 01:35:19;;;;;;;6.53;2.45;;;19.60;99.90;;;;;;5079075;28;20016;-61
2023/05/31 01:37:47;;;;;;;4.65;2.00;;;19.70;99.90;;;;;;5080697;28;20036;-61
2023/05/31 01:40:16;;;;;;;2.78;1.50;;;19.90;99.90;;;;;;5074178;28;20158;-62
2023/05/31 01:42:45;;;;;;;4.32;1.95;;;20.00;99.90;;;;;;5052486;28;20587;-61
2023/05/31 01:45:15;;;;;;;5.00;1.85;;;20.10;99.90;;;;;;5081098;28;20039;-62
2023/05/31 01:47:45;;;;;;;7.15;1.40;;;20.20;99.90;;;;;;5068638;28;20032;-61
2023/05/31 01:50:14;;;;;;;4.82;1.42;;;20.30;99.90;;;;;;5079724;28;20020;-61
2023/05/31 01:52:42;;;;;;;5.07;2.03;;;20.30;99.90;;;;;;5077836;28;20047;-62
2023/05/31 01:55:10;;;;;;;6.25;1.75;;;20.40;99.90;;;;;;5077729;28;20028;-61
2023/05/31 01:57:44;;;;;;;4.45;2.10;;;20.40;99.90;;;;;;5083439;28;20443;-60
2023/05/31 02:00:14;;;;;;;6.50;2.38;;;20.20;99.90;;;;;;5080610;28;20028;-61
2023/05/31 02:02:43;;;;;;;4.72;1.75;;;20.20;99.90;;;;;;5076951;28;20798;-61
2023/05/31 02:05:12;;;;;;;4.70;1.45;;;20.20;99.90;;;;;;5087089;28;20024;-61
2023/05/31 02:07:45;;;;;;;2.97;1.52;;;20.20;99.90;;;;;;5060778;28;20500;-59
2023/05/31 02:10:14;;;;;;;7.85;1.58;;;20.30;99.90;;;;;;5071418;28;20047;-60
2023/05/31 02:12:41;;;;;;;8.20;3.20;;;20.50;99.90;;;;;;5077887;28;20043;-62
2023/05/31 02:15:12;;;;;;;2.67;1.33;;;20.60;99.90;;;;;;5080894;28;20153;-62
2023/05/31 02:17:42;;;;;;;1.30;0.82;;;20.60;99.90;;;;;;5075300;28;20020;-61
2023/05/31 02:20:13;;;;;;;3.22;1.13;;;20.70;99.90;;;;;;5085450;28;20421;-60
2023/05/31 02:22:46;;;;;;;3.95;1.55;;;20.70;99.90;;;;;;5055222;28;20028;-59
2023/05/31 02:25:15;;;;;;;2.38;1.35;;;20.70;99.90;;;;;;5075266;28;20025;-60
2023/05/31 02:27:43;;;;;;;5.78;1.25;;;20.80;99.90;;;;;;5074936;28;20392;-60
2023/05/31 02:30:11;;;;;;;4.20;1.13;;;20.80;99.90;;;;;;5086120;28;20021;-59
2023/05/31 02:32:39;;;;;;;3.00;1.02;;;20.90;99.90;;;;;;5080486;28;20024;-59
2023/05/31 02:35:09;;;;;;;2.53;1.20;;;21.00;99.90;;;;;;5074637;28;20043;-60
2023/05/31 02:37:39;;;;;;;3.22;1.35;;;21.10;99.90;;;;;;5073199;28;20024;-62
2023/05/31 02:40:08;;;;;;;2.33;1.00;;;21.20;99.90;;;;;;5073995;28;20036;-62
2023/05/31 02:42:36;;;;;;;4.15;1.30;;;21.20;99.90;;;;;;5082376;28;20013;-62
2023/05/31 02:45:04;;;;;;;2.55;1.08;;;21.20;99.90;;;;;;5079680;28;20039;-61
2023/05/31 02:47:32;;;;;;;5.43;1.48;;;21.30;99.90;;;;;;5075280;28;20032;-62
2023/05/31 02:49:59;;;;;;;6.78;1.27;;;21.30;99.90;;;;;;5086078;28;20427;-62
2023/05/31 02:52:27;;;;;;;1.98;1.20;;;21.30;99.90;;;;;;5079937;28;20047;-63
2023/05/31 02:54:54;;;;;;;5.85;1.27;;;21.30;99.90;;;;;;5078452;28;20032;-60
2023/05/31 02:57:22;;;;;;;1.73;1.00;;;21.30;99.90;;;;;;5076604;28;20028;-61
2023/05/31 02:59:54;;;;;;;2.63;1.48;;;21.40;99.90;;;;;;5071982;28;20067;-60
2023/05/31 03:02:22;;;;;;;2.47;1.13;;;21.40;99.90;;;;;;5068874;28;20027;-62
2023/05/31 03:04:50;;;;;;;2.78;1.60;;;21.30;99.90;;;;;;5077404;28;20020;-60
2023/05/31 03:07:17;;;;;;;4.38;2.33;;;21.40;99.90;;;;;;5077956;28;20031;-60
2023/05/31 03:09:45;;;;;;;4.07;1.60;;;21.40;99.90;;;;;;5070299;28;20423;-60
2023/05/31 03:12:12;;;;;;;3.50;1.27;;;21.50;99.90;;;;;;5070359;28;20018;-60
2023/05/31 03:14:40;;;;;;;2.95;1.40;;;21.50;99.90;;;;;;5079509;28;20056;-60
2023/05/31 03:17:08;;;;;;;6.55;2.17;;;21.50;99.90;;;;;;5085954;28;20053;-60
2023/05/31 03:19:35;;;;;;;3.60;1.33;;;21.60;99.90;;;;;;5074510;28;20035;-60
2023/05/31 03:22:03;;;;;;;4.30;1.70;;;21.60;99.90;;;;;;5085044;28;20071;-61
2023/05/31 03:24:30;;;;;;;2.70;1.20;;;21.60;99.90;;;;;;5076749;28;20043;-61
2023/05/31 03:26:58;;;;;;;4.13;1.45;;;21.70;99.90;;;;;;5087093;28;20032;-60
2023/05/31 03:29:25;;;;;;;4.28;1.30;;;21.70;99.90;;;;;;5073361;28;20051;-60
2023/05/31 03:31:53;;;;;;;2.78;1.25;;;21.70;99.90;;;;;;5071957;28;20029;-60
2023/05/31 03:34:21;;;;;;;3.17;1.35;;;21.70;99.90;;;;;;5071804;28;20062;-60
2023/05/31 03:36:48;;;;;;;3.70;1.80;;;21.80;99.90;;;;;;5078179;28;20063;-60
2023/05/31 03:39:16;;;;;;;3.78;1.50;;;21.80;99.90;;;;;;5076647;28;20031;-60
2023/05/31 03:41:43;;;;;;;3.10;1.00;;;21.90;99.90;;;;;;5072180;28;20068;-60
2023/05/31 03:44:11;;;;;;;2.30;1.30;;;22.00;99.90;;;;;;5078844;28;20016;-63
2023/05/31 03:46:38;;;;;;;6.53;1.70;;;22.00;99.90;;;;;;5078720;28;20081;-60
2023/05/31 03:49:06;;;;;;;3.35;1.95;;;22.10;99.90;;;;;;5083393;28;20366;-60
2023/05/31 03:51:33;;;;;;;2.28;1.10;;;22.00;99.90;;;;;;5081466;28;20440;-60
2023/05/31 03:54:01;;;;;;;2.53;1.55;;;22.00;99.90;;;;;;5059788;28;20087;-60
2023/05/31 03:56:28;;;;;;;3.88;1.10;;;22.00;99.90;;;;;;5067197;28;20031;-60
2023/05/31 03:58:56;;;;;;;2.67;1.52;;;22.00;99.90;;;;;;5069968;28;20648;-60
2023/05/31 04:01:23;;;;;;;2.67;1.08;;;21.90;99.90;;;;;;5078506;28;20120;-61
2023/05/31 04:03:50;;;;;;;3.28;0.77;;;21.90;99.90;;;;;;5058428;28;20021;-61
2023/05/31 04:06:18;;;;;;;5.32;0.98;;;21.80;99.90;;;;;;5060362;28;20035;-61
2023/05/31 04:08:45;;;;;;;2.03;0.90;;;21.80;99.90;;;;;;5068302;28;20028;-61
2023/05/31 04:11:14;;;;;;;2.63;0.90;;;21.70;99.90;;;;;;5062886;28;20021;-60
2023/05/31 04:13:41;;;;;;;1.80;0.80;;;21.60;99.90;;;;;;5066880;28;20020;-60
2023/05/31 04:16:09;;;;;;;2.28;1.15;;;21.60;99.90;;;;;;5068133;28;20021;-61
2023/05/31 04:18:36;;;;;;;1.70;1.00;;;21.60;99.90;;;;;;5056450;28;20017;-60
2023/05/31 04:21:04;;;;;;;1.95;0.65;;;21.60;99.90;;;;;;5057583;28;20132;-61
2023/05/31 04:23:32;;;;;;;3.67;1.33;;;21.60;99.90;;;;;;5055881;28;20110;-61
2023/05/31 04:26:01;;;;;;;1.70;1.00;;;21.50;99.90;;;;;;5052164;28;20032;-61
2023/05/31 04:28:32;;;;;;;1.83;0.88;;;21.50;99.90;;;;;;5053401;28;20078;-60
2023/05/31 04:31:01;;;;;;;1.63;0.90;;;21.40;99.90;;;;;;5058752;28;20039;-61
2023/05/31 04:33:29;;;;;;;3.05;0.80;;;21.30;99.90;;;;;;5064237;28;20056;-61
2023/05/31 04:35:57;;;;;;;1.48;0.80;;;21.30;99.90;;;;;;5074759;28;20059;-62
2023/05/31 04:38:27;;;;;;;2.80;0.90;;;21.20;99.90;;;;;;5055507;28;20025;-61
2023/05/31 04:40:57;;;;;;;2.28;0.90;;;21.10;99.90;;;;;;5060416;28;20037;-61
2023/05/31 04:43:27;;;;;;;1.42;0.88;;;21.10;99.90;;;;;;5057417;28;20050;-62
2023/05/31 04:45:55;;;;;;;1.35;0.80;;;21.00;99.90;;;;;;5054545;28;20063;-64
2023/05/31 04:48:23;;;;;;;1.60;0.90;;;20.90;99.90;;;;;;5052849;28;20024;-62
2023/05/31 04:50:51;;;;;;;2.40;0.70;;;20.90;99.90;;;;;;5057737;28;20118;-61
2023/05/31 04:53:18;;;;;;;3.20;1.25;;;20.80;99.90;;;;;;5070598;28;20059;-62
2023/05/31 04:55:46;;;;;;;3.95;1.20;;;20.70;99.90;;;;;;5077192;28;20020;-61
2023/05/31 04:58:13;;;;;;;1.38;0.85;;;20.60;99.90;;;;;;5088825;28;20157;-62
2023/05/31 05:00:41;;;;;;;1.77;1.00;;;20.50;99.90;;;;;;5076063;28;20516;-65
2023/05/31 05:03:08;;;;;;;1.60;0.95;;;20.40;99.90;;;;;;5081444;28;20043;-61
2023/05/31 05:05:36;;;;;;;2.03;1.10;;;20.30;99.90;;;;;;5085123;28;20024;-61
2023/05/31 05:08:03;;;;;;;1.35;0.80;;;20.30;99.90;;;;;;5078641;28;20115;-61
2023/05/31 05:10:31;;;;;;;1.90;1.17;;;20.20;99.90;;;;;;5078788;28;20032;-61
2023/05/31 05:12:58;;;;;;;2.88;1.58;;;20.10;99.90;;;;;;5080007;28;20025;-61
2023/05/31 05:15:26;;;;;;;1.00;0.68;;;20.00;99.90;;;;;;5081985;28;20028;-61
2023/05/31 05:17:53;;;;;;;3.70;1.20;;;19.90;99.90;;;;;;5075012;28;20028;-61
2023/05/31 05:20:21;;;;;;;3.15;1.48;;;19.80;99.90;;;;;;5080003;28;20025;-61
2023/05/31 05:22:51;;;;;;;2.10;0.90;;;19.60;99.90;;;;;;5079265;28;20024;-61
2023/05/31 05:25:21;;;;;;;3.25;1.20;;;19.50;99.90;;;;;;5078092;28;20065;-60
2023/05/31 05:27:49;;;;;;;2.90;1.25;;;19.40;99.90;;;;;;5081258;28;20106;-60
2023/05/31 05:30:17;;;;;;;4.78;1.27;;;19.30;99.90;;;;;;5077395;28;20127;-59
2023/05/31 05:32:44;;;;;;;2.80;1.50;;;19.10;99.90;;;;;;5077507;28;20028;-60
2023/05/31 05:35:12;;;;;;;1.92;1.00;;;19.00;99.90;;;;;;5074610;28;20096;-59
2023/05/31 05:37:39;;;;;;;4.13;1.40;;;19.00;99.90;;;;;;5059481;28;20040;-60
2023/05/31 05:40:07;;;;;;;4.53;1.50;;;19.00;99.90;;;;;;5080414;28;20540;-60
2023/05/31 05:42:37;;;;;;;3.38;1.40;;;19.00;99.90;;;;;;5077899;28;20060;-61
2023/05/31 05:45:09;;;;;;;4.80;1.50;;;19.00;99.90;;;;;;5086804;28;20028;-57
2023/05/31 05:47:36;;;;;;;4.63;1.25;;;18.90;99.90;;;;;;5077792;28;20020;-59
2023/05/31 05:50:04;;;;;;;6.82;1.73;;;18.90;99.90;;;;;;5074857;28;20381;-60
2023/05/31 05:52:32;;;;;;;6.68;1.63;;;18.90;99.90;;;;;;5077289;28;20048;-60
2023/05/31 05:54:59;;;;;;;4.45;1.90;;;18.90;99.90;;;;;;5071814;28;20032;-60
2023/05/31 05:57:27;;;;;;;3.90;1.60;;;18.80;99.90;;;;;;5082682;28;20077;-59
2023/05/31 05:59:54;;;;;;;6.40;2.45;;;18.70;99.90;;;;;;5073716;28;20075;-60
2023/05/31 06:02:22;;;;;;;6.88;2.25;;;18.70;99.90;;;;;;5051884;28;20029;-61
2023/05/31 06:04:49;;;;;;;8.93;3.55;;;18.60;99.90;;;;;;5076351;28;20028;-60
2023/05/31 06:07:19;;;;;;;4.03;1.80;;;18.50;99.90;;;;;;5074778;28;20039;-60
2023/05/31 06:09:47;;;;;;;3.42;1.38;;;18.40;99.90;;;;;;5069723;28;20039;-60
2023/05/31 06:12:15;;;;;;;3.35;1.85;;;18.40;99.90;;;;;;5082500;28;20020;-60
2023/05/31 06:14:42;;;;;;;6.57;1.73;;;18.30;99.90;;;;;;5059961;28;20082;-61
2023/05/31 06:17:10;;;;;;;6.65;2.20;;;18.20;99.90;;;;;;5059382;28;20025;-62
2023/05/31 06:19:38;;;;;;;5.65;1.40;;;18.20;99.90;;;;;;5074173;28;20458;-60
2023/05/31 06:22:05;;;;;;;5.15;1.40;;;18.20;99.90;;;;;;5083715;28;20036;-63
2023/05/31 06:24:33;;;;;;;5.05;1.77;;;18.10;99.90;;;;;;5082384;28;20020;-61
2023/05/31 06:27:02;;;;;;;3.70;1.52;;;18.00;99.90;;;;;;5080817;28;20047;-60
2023/05/31 06:29:30;;;;;;;7.53;2.03;;;17.90;99.90;;;;;;5072833;28;20023;-61
2023/05/31 06:31:57;;;;;;;4.72;1.67;;;17.90;99.90;;;;;;5076694;28;20102;-63
2023/05/31 06:34:25;;;;;;;7.47;1.40;;;17.80;99.90;;;;;;5078704;28;20024;-60
2023/05/31 06:36:52;;;;;;;10.65;1.60;;;17.70;99.90;;;;;;5075075;28;20028;-59
2023/05/31 06:39:20;;;;;;;4.82;1.60;;;17.60;99.90;;;;;;5085835;28;20035;-60
2023/05/31 06:41:47;;;;;;;6.63;1.38;;;17.50;99.90;;;;;;5069569;28;20519;-59
2023/05/31 06:44:15;;;;;;;3.40;1.30;;;17.40;99.90;;;;;;5081643;28;20027;-61
2023/05/31 06:46:42;;;;;;;3.58;1.42;;;17.40;99.90;;;;;;5073560;28;20028;-59
2023/05/31 06:49:10;;;;;;;2.70;1.55;;;17.30;99.90;;;;;;5079090;28;20016;-59
2023/05/31 06:51:37;;;;;;;5.20;1.38;;;17.10;99.90;;;;;;5073684;28;20046;-59
2023/05/31 06:54:05;;;;;;;4.15;1.75;;;17.00;99.90;;;;;;5073722;28;20036;-59
2023/05/31 06:56:32;;;;;;;4.30;2.10;;;16.90;99.90;;;;;;5076174;28;20052;-60
2023/05/31 06:59:00;;;;;;;4.85;2.03;;;16.80;99.90;;;;;;5075888;28;20036;-59
2023/05/31 07:01:28;;;;;;;3.97;1.92;;;16.70;99.90;;;;;;5072865;28;20036;-59
2023/05/31 07:03:56;;;;;;;6.47;2.05;;;16.60;99.90;;;;;;5078347;28;20032;-59
2023/05/31 07:06:25;;;;;;;5.13;2.17;;;16.50;99.90;;;;;;5074412;28;20102;-60
2023/05/31 07:08:53;;;;;;;2.65;1.70;;;16.40;99.90;;;;;;5070956;28;20035;-59
2023/05/31 07:11:21;;;;;;;5.80;1.75;;;16.40;99.90;;;;;;5077189;28;20085;-59
2023/05/31 07:13:49;;;;;;;2.35;1.20;;;16.30;99.90;;;;;;5070437;28;20025;-59
2023/05/31 07:16:16;;;;;;;3.30;1.10;;;16.30;99.90;;;;;;5073830;28;20502;-60
2023/05/31 07:18:45;;;;;;;2.53;1.10;;;16.30;99.90;;;;;;5080599;28;20389;-60
2023/05/31 07:21:13;;;;;;;1.80;0.90;;;16.30;99.90;;;;;;5075612;28;20044;-59
2023/05/31 07:23:40;;;;;;;1.58;0.70;;;16.30;99.90;;;;;;5079143;28;20055;-59
2023/05/31 07:26:08;;;;;;;2.83;1.08;;;16.20;99.90;;;;;;5079047;28;20028;-59
2023/05/31 07:28:35;;;;;;;4.63;1.70;;;16.20;99.90;;;;;;5085085;28;20028;-59
2023/05/31 07:31:03;;;;;;;6.43;1.58;;;16.20;99.90;;;;;;5083705;28;20508;-60
2023/05/31 07:33:31;;;;;;;4.95;1.70;;;16.10;99.90;;;;;;5094762;28;20628;-59
2023/05/31 07:36:02;;;;;;;3.90;1.23;;;16.10;99.90;;;;;;5071836;28;20020;-60
2023/05/31 07:38:30;;;;;;;3.45;1.50;;;16.00;99.90;;;;;;5073717;28;20028;-59
2023/05/31 07:40:57;;;;;;;4.00;2.33;;;15.90;99.90;;;;;;5079841;28;20114;-58
2023/05/31 07:43:26;;;;;;;4.43;2.13;;;15.90;99.90;;;;;;5072184;28;20079;-59
2023/05/31 07:45:54;;;;;;;3.97;2.22;;;15.80;99.90;;;;;;5080210;28;20632;-59
2023/05/31 07:48:22;;;;;;;3.97;2.00;;;15.70;99.90;;;;;;5074916;28;20021;-59
2023/05/31 07:50:49;;;;;;;3.97;1.67;;;15.70;99.90;;;;;;5083946;28;20036;-59
2023/05/31 07:53:17;;;;;;;3.40;1.95;;;15.60;99.90;;;;;;5071531;28;20045;-59
2023/05/31 07:55:45;;;;;;;7.53;2.40;;;15.50;99.90;;;;;;5058719;28;20089;-58
2023/05/31 07:58:13;;;;;;;5.45;2.55;;;15.50;99.90;;;;;;5072199;28;20032;-59
2023/05/31 08:00:40;;;;;;;4.47;2.10;;;15.50;99.90;;;;;;5074319;28;20071;-59
2023/05/31 08:03:08;;;;;;;3.72;2.33;;;15.50;99.90;;;;;;5078046;28;20047;-60
2023/05/31 08:05:35;;;;;;;4.72;1.55;;;15.50;99.90;;;;;;5076646;28;20396;-59
2023/05/31 08:08:05;;;;;;;4.13;1.60;;;15.50;99.90;;;;;;5075044;28;20021;-58
2023/05/31 08:10:33;;;;;;;3.10;1.52;;;15.40;99.90;;;;;;5065984;28;20016;-60
2023/05/31 08:13:01;;;;;;;3.58;1.38;;;15.30;99.90;;;;;;5082611;28;20035;-60
2023/05/31 08:15:28;;;;;;;4.05;1.35;;;15.30;99.90;;;;;;5073296;28;20052;-60
2023/05/31 08:17:56;;;;;;;2.67;1.30;;;15.30;99.90;;;;;;5079537;28;20024;-59
2023/05/31 08:20:24;;;;;;;2.78;1.33;;;15.30;99.90;;;;;;5079244;28;20041;-60
2023/05/31 08:22:52;;;;;;;3.40;1.27;;;15.20;99.90;;;;;;5073600;28;20511;-59
2023/05/31 08:25:22;;;;;;;3.88;2.03;;;15.10;99.90;;;;;;5073428;28;20027;-59
2023/05/31 08:27:50;;;;;;;3.35;1.55;;;15.10;99.90;;;;;;5076952;28;20028;-62
2023/05/31 08:30:17;;;;;;;4.70;2.20;;;15.00;99.90;;;;;;5074629;28;20029;-59
2023/05/31 08:32:45;;;;;;;4.28;1.95;;;14.90;99.90;;;;;;5069118;28;20116;-59
2023/05/31 08:35:12;;;;;;;4.85;2.20;;;14.80;99.90;;;;;;5074265;28;20043;-60
2023/05/31 08:37:40;;;;;;;5.13;1.83;;;14.70;99.90;;;;;;5076056;28;20021;-60
2023/05/31 08:40:08;;;;;;;5.97;2.08;;;14.60;99.90;;;;;;5062126;28;20082;-59
2023/05/31 08:42:41;;;;;;;7.82;2.20;;;14.60;99.90;;;;;;5086597;28;20016;-60
2023/05/31 08:45:10;;;;;;;6.18;3.25;;;14.60;99.90;;;;;;5065620;28;20506;-59
2023/05/31 08:47:45;;;;;;;5.55;1.90;;;14.60;99.90;;;;;;5060676;28;20040;-59
2023/05/31 08:50:12;;;;;;;;;;;14.60;99.90;;;;;;5084282;28;20039;-51
2023/05/31 08:52:40;;;;;;;5.40;1.95;;;14.60;99.90;;;;;;5085119;28;19923;-59
2023/05/31 08:55:12;;;;;;;5.97;2.42;;;14.60;99.90;;;;;;5065740;28;20083;-59
2023/05/31 08:57:40;;;;;;;6.00;2.35;;;14.50;99.90;;;;;;5074145;28;20031;-59
2023/05/31 09:00:10;;;;;;;7.15;2.47;;;14.50;99.90;;;;;;5074235;28;20024;-58
2023/05/31 09:02:39;;;;;;;4.15;2.30;;;14.50;99.90;;;;;;5057450;28;20057;-59
2023/05/31 09:05:11;;;;;;;5.68;2.00;;;14.60;99.90;;;;;;5081270;28;20024;-59
2023/05/31 09:07:39;;;;;;;6.63;2.00;;;14.50;99.90;;;;;;5074529;28;20039;-59
2023/05/31 09:10:08;;;;;;;5.72;1.80;;;14.50;99.90;;;;;;5053506;28;20027;-58
2023/05/31 09:12:37;;;;;;;7.18;2.17;;;14.60;99.90;;;;;;5070521;28;20020;-60
2023/05/31 09:15:06;;;;;;;6.85;2.42;;;14.60;99.90;;;;;;5078830;28;20119;-59
2023/05/31 09:17:34;;;;;;;5.20;1.90;;;14.60;99.90;;;;;;5077145;28;20389;-57
2023/05/31 09:20:03;;;;;;;5.32;1.50;;;14.60;99.90;;;;;;5075643;28;20426;-58
2023/05/31 09:22:30;;;;;;;5.57;1.77;;;14.60;99.90;;;;;;5078497;28;20658;-60
2023/05/31 09:24:59;;;;;;;13.65;2.45;;;14.60;99.90;;;;;;5079925;28;20052;-59
2023/05/31 09:27:35;;;;;;;35.25;3.63;;;14.70;99.90;;;;;;5074871;28;20032;-59
2023/05/31 09:30:08;;;;;;;15.82;3.15;;;14.70;99.90;;;;;;5060144;28;20029;-58
2023/05/31 09:32:36;;;;;;;37.78;3.50;;;14.80;99.90;;;;;;5057121;28;20452;-59
2023/05/31 09:35:20;;;;;;;17.90;3.22;;;14.80;99.90;;;;;;5053927;28;20056;-58
2023/05/31 09:37:49;;;;;;;31.15;4.80;;;14.70;99.90;;;;;;5080537;28;20129;-60
2023/05/31 09:40:24;;;;;;;30.23;4.65;;;14.60;99.90;;;;;;5069999;28;20035;-60
2023/05/31 09:42:55;;;;;;;17.13;4.18;;;14.60;99.90;;;;;;5069177;28;20032;-59
2023/05/31 09:45:23;;;;;;;19.60;2.90;;;14.60;99.90;;;;;;5068095;28;20125;-60
2023/05/31 09:47:51;;;;;;;29.10;4.78;;;14.60;99.90;;;;;;5073473;28;20024;-59
2023/05/31 09:50:20;;;;;;;25.65;4.13;;;14.50;99.90;;;;;;5075433;28;20097;-58
2023/05/31 09:52:51;;;;;;;18.73;3.40;;;14.50;99.90;;;;;;5085660;28;20138;-59
2023/05/31 09:55:19;;;;;;;12.95;3.42;;;14.60;99.90;;;;;;5090327;28;20035;-59
2023/05/31 09:57:48;;;;;;;16.00;2.90;;;14.60;99.90;;;;;;5108457;28;20060;-60
2023/05/31 10:00:20;;;;;;;22.65;3.53;;;14.60;99.90;;;;;;5075294;28;20035;-59
2023/05/31 10:02:55;;;;;;;16.40;3.72;;;14.60;99.90;;;;;;5058286;28;20119;-58
2023/05/31 10:05:22;;;;;;;16.13;2.92;;;14.60;99.90;;;;;;5061329;28;20565;-58
2023/05/31 10:07:54;;;;;;;14.98;3.25;;;14.70;99.90;;;;;;5081279;28;20107;-57
2023/05/31 10:10:23;;;;;;;9.48;3.97;;;14.70;99.90;;;;;;5088462;28;20047;-59
2023/05/31 10:12:58;;;;;;;31.88;5.32;;;14.70;99.90;;;;;;5087977;28;20059;-58
2023/05/31 10:15:26;;;;;;;20.17;3.97;;;14.70;99.90;;;;;;5067892;28;20593;-59
2023/05/31 10:18:20;;;;;;;11.80;2.53;;;14.60;99.90;;;;;;5072826;28;20369;-59
2023/05/31 10:20:49;;;;;;;26.50;5.20;;;14.50;99.90;;;;;;5078611;28;20519;-58
2023/05/31 10:23:27;;;;;;;21.42;2.88;;;14.50;99.90;;;;;;5068426;28;20074;-59
2023/05/31 10:26:13;;;;;;;25.17;3.80;;;14.40;99.90;;;;;;5067233;28;20628;-58
2023/05/31 10:29:02;;;;;;;13.18;2.92;;;14.30;99.90;;;;;;5068099;28;20047;-58
2023/05/31 10:31:38;;;;;;;12.25;3.30;;;14.30;99.90;;;;;;5070821;28;20021;-58
2023/05/31 10:34:22;;;;;;;12.07;3.40;;;14.20;99.90;;;;;;5049432;28;20029;-59
2023/05/31 10:36:54;;;;;;;14.90;4.55;;;14.10;99.90;;;;;;5071125;28;20020;-59
2023/05/31 10:39:38;;;;;;;16.00;4.20;;;14.00;99.90;;;;;;5067525;28;20040;-59
2023/05/31 10:42:21;;;;;;;16.08;3.67;;;14.00;99.90;;;;;;5050689;28;20043;-60
2023/05/31 10:45:12;;;;;;;18.20;3.35;;;13.90;99.90;;;;;;5068177;28;20139;-58
2023/05/31 10:48:13;;;;;;;17.42;4.07;;;13.80;99.90;;;;;;5079385;28;20028;-58
2023/05/31 10:51:01;;;;;;;10.95;2.65;;;13.70;99.90;;;;;;5072091;28;20421;-59
2023/05/31 10:53:47;;;;;;;10.18;3.17;;;13.70;99.90;;;;;;5076229;28;20405;-59
2023/05/31 10:56:17;;;;;;;21.75;5.57;;;13.60;99.90;;;;;;5084590;28;20396;-58
2023/05/31 10:58:53;;;;;;;13.02;4.70;;;13.50;99.90;;;;;;5073785;28;20036;-59
2023/05/31 11:01:21;;;;;;;10.07;4.28;;;13.50;99.90;;;;;;5082085;28;20526;-59
2023/05/31 11:03:52;;;;;;;9.77;4.18;;;13.40;99.90;;;;;;5069555;28;20025;-59
2023/05/31 11:06:32;;;;;;;8.45;4.43;;;13.40;99.90;;;;;;5085483;28;20032;-59
2023/05/31 11:09:05;;;;;;;14.65;5.47;;;13.40;99.90;;;;;;5087502;28;20040;-59
2023/05/31 11:11:33;;;;;;;12.00;5.43;;;13.40;99.90;;;;;;5072695;28;20099;-58
2023/05/31 11:14:06;;;;;;;14.20;6.30;;;13.40;99.90;;;;;;5083981;28;20040;-58
2023/05/31 11:16:56;;;;;;;10.13;5.82;;;13.40;99.90;;;;;;5049008;28;20025;-59
2023/05/31 11:19:32;;;;;;;12.20;5.47;;;13.40;99.90;;;;;;5065734;28;20028;-61
2023/05/31 11:22:15;;;;;;;11.18;5.18;;;13.40;99.90;;;;;;5066744;28;20115;-59
2023/05/31 11:25:00;;;;;;;11.40;5.07;;;13.40;99.90;;;;;;5066867;28;20039;-57
2023/05/31 11:27:40;;;;;;;8.90;4.80;;;13.40;99.90;;;;;;5084137;28;20487;-59
2023/05/31 11:30:13;;;;;;;8.48;4.32;;;13.30;99.90;;;;;;5079349;28;20104;-57
2023/05/31 11:32:41;;;;;;;6.50;4.22;;;13.30;99.90;;;;;;5077882;28;20036;-65
2023/05/31 11:35:13;;;;;;;14.15;4.95;;;13.30;99.90;;;;;;5067457;28;20020;-59
2023/05/31 11:37:42;;;;;;;16.67;7.60;;;13.30;99.90;;;;;;5078952;28;20032;-59
2023/05/31 11:40:12;;;;;;;13.70;6.60;;;13.20;99.90;;;;;;5082061;28;20043;-58
2023/05/31 11:42:41;;;;;;;20.73;6.88;;;13.20;99.90;;;;;;5072482;28;20028;-59
2023/05/31 11:45:25;;;;;;;18.00;7.03;;;13.20;99.90;;;;;;5083417;28;20120;-59
2023/05/31 11:48:22;;;;;;;16.58;6.55;;;13.20;99.90;;;;;;5058678;28;20037;-59
2023/05/31 11:50:49;;;;;;;14.90;6.53;;;13.10;99.90;;;;;;5083310;28;20031;-59
2023/05/31 11:53:17;;;;;;;10.82;5.38;;;13.10;99.90;;;;;;5070480;28;20177;-59
2023/05/31 11:55:48;;;;;;;10.38;5.18;;;13.10;99.90;;;;;;5086385;28;20028;-59
2023/05/31 11:58:19;;;;;;;13.68;5.72;;;13.10;99.90;;;;;;5086619;28;20020;-59
2023/05/31 12:00:47;;;;;;;10.48;4.32;;;13.20;99.90;;;;;;5074013;28;20119;-59
2023/05/31 12:03:20;;;;;;;16.10;4.57;;;13.20;99.90;;;;;;5055973;28;20040;-59
2023/05/31 12:05:52;;;;;;;8.23;3.85;;;13.30;99.90;;;;;;5079607;28;20035;-60
2023/05/31 12:08:19;;;;;;;7.22;3.72;;;13.30;99.90;;;;;;5066339;28;20039;-60
2023/05/31 12:10:47;;;;;;;7.88;3.78;;;13.30;99.90;;;;;;5068149;28;20571;-59
2023/05/31 12:13:17;;;;;;;9.82;3.80;;;13.20;99.90;;;;;;5056651;28;20048;-58
2023/05/31 12:15:55;;;;;;;6.90;4.25;;;13.10;99.90;;;;;;5089194;28;20078;-59
2023/05/31 12:18:24;;;;;;;9.18;3.85;;;13.10;99.90;;;;;;5079184;28;20028;-60
2023/05/31 12:20:51;;;;;;;8.40;3.83;;;13.00;99.90;;;;;;5060321;28;20040;-59
2023/05/31 12:23:19;;;;;;;8.60;3.85;;;13.00;99.90;;;;;;5082447;28;20024;-60
2023/05/31 12:25:51;;;;;;;15.35;6.75;;;13.00;99.90;;;;;;5082223;28;20116;-59
2023/05/31 12:28:21;;;;;;;11.95;6.18;;;12.90;99.90;;;;;;5061603;28;20016;-60
2023/05/31 12:30:51;;;;;;;13.80;4.13;;;12.80;99.90;;;;;;5080044;28;20016;-58
2023/05/31 12:33:19;;;;;;;7.68;3.17;;;12.80;99.90;;;;;;5079699;28;20152;-60
2023/05/31 12:35:48;;;;;;;6.00;3.80;;;12.70;99.90;;;;;;5081761;28;20374;-58
2023/05/31 12:38:16;;;;;;;7.70;3.17;;;12.80;99.90;;;;;;5079236;28;20027;-60
2023/05/31 12:40:44;;;;;;;6.55;3.72;;;12.90;99.90;;;;;;5080760;28;20043;-59
2023/05/31 12:43:14;;;;;;;5.20;3.20;;;12.90;99.90;;;;;;5080112;28;20033;-60
2023/05/31 12:45:42;;;;;;;5.22;3.25;;;13.00;99.90;;;;;;5082183;28;20024;-62
2023/05/31 12:48:11;;;;;;;5.72;3.20;;;13.20;99.90;;;;;;5087682;28;20379;-59
2023/05/31 12:50:47;;;;;;;5.25;2.95;;;13.20;99.90;;;;;;5084500;28;20077;-60
2023/05/31 12:53:15;;;;;;;7.70;3.08;;;13.20;99.90;;;;;;5076925;28;20048;-60
2023/05/31 12:55:45;;;;;;;6.18;3.22;;;13.10;99.90;;;;;;5084529;28;20486;-60
2023/05/31 12:58:12;;;;;;;4.82;2.88;;;13.00;99.90;;;;;;5060926;28;20393;-60